Hatfield, United Kingdom
Current Conditions -  °F | °C
As of 9:50 AM on Monday 22 Dec 2014 (Local Time) from EGGW Reporting Station
Broken Clouds Broken Clouds  
Wind Chill: 54°   Ceiling: 2000
Heat Index: 54°   Visibility: 6mi
Dew Point: 46°   Wind: 23mph
Humidity: 77%   Direction: 240°WSW
Pressure: 30"   Gusts: NA
Location:  51.75°N, 0.23°W
Report Text: EGGW 220950Z 24020KT 9999 BKN020 BKN027 12/08 Q1016
Loading
Personal Weather Stations






























Interactive Weather Map New forecast layout! Learn more

10-Day Weather Forecast

Advertisements
Track Severe Weather on mobile